sensor_id;sensor_type;location;lat;lon;timestamp;pressure;altitude;pressure_sealevel;temperature;humidity
34983;BME280;21187;50.976;13.720;2022-07-01T00:02:33;97856.28;;;25.47;50.40
34983;BME280;21187;50.976;13.720;2022-07-01T00:07:35;97848.28;;;25.49;50.55
34983;BME280;21187;50.976;13.720;2022-07-01T00:12:37;97845.19;;;25.47;50.45
34983;BME280;21187;50.976;13.720;2022-07-01T00:17:39;97840.56;;;25.44;50.15
34983;BME280;21187;50.976;13.720;2022-07-01T00:22:41;97841.50;;;25.40;50.53
34983;BME280;21187;50.976;13.720;2022-07-01T00:27:43;97841.50;;;25.40;50.61
34983;BME280;21187;50.976;13.720;2022-07-01T00:32:46;97836.56;;;25.35;50.68
34983;BME280;21187;50.976;13.720;2022-07-01T00:37:48;97838.19;;;25.23;50.84
34983;BME280;21187;50.976;13.720;2022-07-01T00:42:50;97828.00;;;25.20;51.13
34983;BME280;21187;50.976;13.720;2022-07-01T00:47:52;97829.88;;;25.23;51.32
34983;BME280;21187;50.976;13.720;2022-07-01T00:52:54;97831.84;;;25.23;51.33
34983;BME280;21187;50.976;13.720;2022-07-01T00:57:56;97820.13;;;25.19;51.62
34983;BME280;21187;50.976;13.720;2022-07-01T01:02:59;97816.59;;;25.18;51.67
34983;BME280;21187;50.976;13.720;2022-07-01T01:08:00;97811.38;;;25.20;51.04
34983;BME280;21187;50.976;13.720;2022-07-01T01:13:03;97803.81;;;25.12;51.20
34983;BME280;21187;50.976;13.720;2022-07-01T01:18:06;97786.50;;;24.98;51.65
34983;BME280;21187;50.976;13.720;2022-07-01T01:23:08;97790.34;;;24.91;51.70
34983;BME280;21187;50.976;13.720;2022-07-01T01:28:10;97789.22;;;24.80;52.14
34983;BME280;21187;50.976;13.720;2022-07-01T01:33:12;97787.97;;;24.71;52.10
34983;BME280;21187;50.976;13.720;2022-07-01T01:38:14;97777.81;;;24.68;52.11
34983;BME280;21187;50.976;13.720;2022-07-01T01:43:15;97772.91;;;24.72;51.73
34983;BME280;21187;50.976;13.720;2022-07-01T01:48:17;97759.66;;;24.67;51.78
34983;BME280;21187;50.976;13.720;2022-07-01T01:53:19;97762.63;;;24.51;52.23
34983;BME280;21187;50.976;13.720;2022-07-01T01:58:21;97768.03;;;24.32;52.71
34983;BME280;21187;50.976;13.720;2022-07-01T02:03:25;97776.03;;;24.30;52.75
34983;BME280;21187;50.976;13.720;2022-07-01T02:08:28;97776.69;;;24.34;52.67
34983;BME280;21187;50.976;13.720;2022-07-01T02:13:30;97767.91;;;24.36;52.56
34983;BME280;21187;50.976;13.720;2022-07-01T02:18:32;97781.59;;;24.30;52.48
34983;BME280;21187;50.976;13.720;2022-07-01T02:23:34;97783.06;;;24.22;52.87
34983;BME280;21187;50.976;13.720;2022-07-01T02:28:36;97800.25;;;24.17;52.97
34983;BME280;21187;50.976;13.720;2022-07-01T02:33:38;97797.44;;;24.07;53.11
34983;BME280;21187;50.976;13.720;2022-07-01T02:38:40;97799.34;;;23.98;53.22
34983;BME280;21187;50.976;13.720;2022-07-01T02:43:42;97811.94;;;23.99;53.30
34983;BME280;21187;50.976;13.720;2022-07-01T02:48:44;97822.09;;;24.02;53.04
34983;BME280;21187;50.976;13.720;2022-07-01T02:53:46;97813.63;;;23.96;53.30
34983;BME280;21187;50.976;13.720;2022-07-01T02:58:48;97823.78;;;23.99;53.55
34983;BME280;21187;50.976;13.720;2022-07-01T03:03:50;97828.34;;;23.93;53.30
34983;BME280;21187;50.976;13.720;2022-07-01T03:08:52;97835.97;;;23.89;54.04
34983;BME280;21187;50.976;13.720;2022-07-01T03:13:55;97829.91;;;23.81;53.93
34983;BME280;21187;50.976;13.720;2022-07-01T03:18:57;97833.56;;;23.91;53.79
34983;BME280;21187;50.976;13.720;2022-07-01T03:23:59;97828.53;;;23.99;53.76
34983;BME280;21187;50.976;13.720;2022-07-01T03:29:01;97839.50;;;24.02;53.76
34983;BME280;21187;50.976;13.720;2022-07-01T03:34:03;97833.91;;;23.80;54.62
34983;BME280;21187;50.976;13.720;2022-07-01T03:39:04;97841.75;;;23.82;54.92
34983;BME280;21187;50.976;13.720;2022-07-01T03:44:07;97850.16;;;23.91;55.19
34983;BME280;21187;50.976;13.720;2022-07-01T03:49:09;97851.84;;;24.11;55.34
34983;BME280;21187;50.976;13.720;2022-07-01T03:54:11;97847.09;;;24.33;55.06
34983;BME280;21187;50.976;13.720;2022-07-01T03:59:33;97848.50;;;24.60;55.02
34983;BME280;21187;50.976;13.720;2022-07-01T04:04:36;97861.22;;;24.80;55.03
34983;BME280;21187;50.976;13.720;2022-07-01T04:09:39;97871.78;;;25.03;54.89
34983;BME280;21187;50.976;13.720;2022-07-01T04:14:41;97892.81;;;25.23;54.85
34983;BME280;21187;50.976;13.720;2022-07-01T04:19:43;97901.06;;;25.36;54.30
34983;BME280;21187;50.976;13.720;2022-07-01T04:24:45;97916.94;;;25.35;54.64
34983;BME280;21187;50.976;13.720;2022-07-01T04:29:47;97913.81;;;25.33;54.90
34983;BME280;21187;50.976;13.720;2022-07-01T04:34:49;97919.00;;;25.63;53.84
34983;BME280;21187;50.976;13.720;2022-07-01T04:39:51;97926.59;;;25.71;53.70
34983;BME280;21187;50.976;13.720;2022-07-01T04:44:53;97916.44;;;25.78;53.57
34983;BME280;21187;50.976;13.720;2022-07-01T04:49:55;97922.63;;;25.91;53.50
34983;BME280;21187;50.976;13.720;2022-07-01T04:54:57;97926.94;;;26.01;53.25
34983;BME280;21187;50.976;13.720;2022-07-01T05:00:08;97935.84;;;25.78;53.96
34983;BME280;21187;50.976;13.720;2022-07-01T05:05:10;97944.78;;;25.82;53.88
34983;BME280;21187;50.976;13.720;2022-07-01T05:10:12;97950.34;;;25.82;53.67
34983;BME280;21187;50.976;13.720;2022-07-01T05:15:13;97952.50;;;25.78;53.13
34983;BME280;21187;50.976;13.720;2022-07-01T05:20:15;97956.81;;;25.88;52.95
34983;BME280;21187;50.976;13.720;2022-07-01T05:25:36;97961.00;;;26.02;52.53
34983;BME280;21187;50.976;13.720;2022-07-01T05:30:38;97965.22;;;26.06;52.09
34983;BME280;21187;50.976;13.720;2022-07-01T05:35:39;97968.63;;;26.11;51.74
34983;BME280;21187;50.976;13.720;2022-07-01T05:40:41;97972.03;;;26.24;51.54
34983;BME280;21187;50.976;13.720;2022-07-01T05:45:43;97965.88;;;26.29;51.35
34983;BME280;21187;50.976;13.720;2022-07-01T05:50:45;97966.47;;;26.52;49.75
34983;BME280;21187;50.976;13.720;2022-07-01T05:55:48;97964.47;;;26.52;49.40
34983;BME280;21187;50.976;13.720;2022-07-01T06:00:50;97976.50;;;26.58;48.93
34983;BME280;21187;50.976;13.720;2022-07-01T06:05:52;97972.78;;;26.43;48.97
34983;BME280;21187;50.976;13.720;2022-07-01T06:10:54;97983.75;;;26.28;49.30
34983;BME280;21187;50.976;13.720;2022-07-01T06:15:56;97986.19;;;26.26;49.72
34983;BME280;21187;50.976;13.720;2022-07-01T06:21:01;97982.53;;;26.29;49.83
34983;BME280;21187;50.976;13.720;2022-07-01T06:26:03;97977.13;;;26.44;49.56
34983;BME280;21187;50.976;13.720;2022-07-01T06:31:05;97981.44;;;26.45;49.45
34983;BME280;21187;50.976;13.720;2022-07-01T06:36:07;98001.03;;;26.41;49.08
34983;BME280;21187;50.976;13.720;2022-07-01T06:41:09;97971.41;;;26.20;49.26
34983;BME280;21187;50.976;13.720;2022-07-01T06:46:29;97965.84;;;26.20;49.63
34983;BME280;21187;50.976;13.720;2022-07-01T06:51:32;97978.53;;;26.39;49.85
34983;BME280;21187;50.976;13.720;2022-07-01T06:56:34;97975.16;;;26.72;48.65
34983;BME280;21187;50.976;13.720;2022-07-01T07:01:36;97990.53;;;26.83;48.74
34983;BME280;21187;50.976;13.720;2022-07-01T07:06:38;97990.06;;;26.84;48.63
34983;BME280;21187;50.976;13.720;2022-07-01T07:11:40;97998.88;;;26.83;48.65
34983;BME280;21187;50.976;13.720;2022-07-01T07:16:42;98013.69;;;26.89;48.48
34983;BME280;21187;50.976;13.720;2022-07-01T07:21:44;98018.34;;;26.73;48.48
34983;BME280;21187;50.976;13.720;2022-07-01T07:26:46;98037.28;;;26.56;49.06
34983;BME280;21187;50.976;13.720;2022-07-01T07:31:49;98038.34;;;26.40;49.51
34983;BME280;21187;50.976;13.720;2022-07-01T07:36:51;98045.69;;;26.06;49.69
34983;BME280;21187;50.976;13.720;2022-07-01T07:41:52;98056.53;;;25.51;50.93
34983;BME280;21187;50.976;13.720;2022-07-01T07:46:54;98071.75;;;25.24;51.54
34983;BME280;21187;50.976;13.720;2022-07-01T07:51:58;98081.03;;;25.08;51.69
34983;BME280;21187;50.976;13.720;2022-07-01T07:57:00;98077.59;;;25.04;51.93
34983;BME280;21187;50.976;13.720;2022-07-01T08:02:02;98078.31;;;24.95;51.95
34983;BME280;21187;50.976;13.720;2022-07-01T08:07:04;98075.66;;;24.91;51.80
34983;BME280;21187;50.976;13.720;2022-07-01T08:12:06;98093.63;;;24.87;52.27
34983;BME280;21187;50.976;13.720;2022-07-01T08:17:08;98113.47;;;24.85;51.90
34983;BME280;21187;50.976;13.720;2022-07-01T08:22:10;98109.41;;;24.51;52.63
34983;BME280;21187;50.976;13.720;2022-07-01T08:27:12;98121.16;;;24.42;52.69
34983;BME280;21187;50.976;13.720;2022-07-01T08:32:14;98139.78;;;24.29;52.87
34983;BME280;21187;50.976;13.720;2022-07-01T08:37:16;98119.19;;;24.17;52.78
34983;BME280;21187;50.976;13.720;2022-07-01T08:42:18;98125.19;;;24.16;52.99
34983;BME280;21187;50.976;13.720;2022-07-01T08:47:20;98132.25;;;24.17;52.81
34983;BME280;21187;50.976;13.720;2022-07-01T08:52:22;98129.16;;;24.15;52.80
34983;BME280;21187;50.976;13.720;2022-07-01T08:57:24;98138.22;;;24.02;52.79
34983;BME280;21187;50.976;13.720;2022-07-01T09:02:26;98150.47;;;23.88;52.86
34983;BME280;21187;50.976;13.720;2022-07-01T09:07:32;98146.00;;;23.65;53.16
34983;BME280;21187;50.976;13.720;2022-07-01T09:12:44;98157.59;;;23.60;53.06
34983;BME280;21187;50.976;13.720;2022-07-01T09:17:46;98163.53;;;23.46;53.34
34983;BME280;21187;50.976;13.720;2022-07-01T09:23:02;98160.81;;;23.29;53.49
34983;BME280;21187;50.976;13.720;2022-07-01T09:28:12;98176.13;;;23.17;53.81
34983;BME280;21187;50.976;13.720;2022-07-01T09:33:22;98174.63;;;23.13;53.85
34983;BME280;21187;50.976;13.720;2022-07-01T09:38:26;98199.34;;;22.87;54.00
34983;BME280;21187;50.976;13.720;2022-07-01T09:43:34;98204.34;;;22.59;54.51
34983;BME280;21187;50.976;13.720;2022-07-01T09:53:38;98219.38;;;22.74;53.93
34983;BME280;21187;50.976;13.720;2022-07-01T09:58:41;98210.22;;;22.77;53.83
34983;BME280;21187;50.976;13.720;2022-07-01T10:03:45;98206.25;;;22.79;53.67
34983;BME280;21187;50.976;13.720;2022-07-01T10:09:13;98218.66;;;23.20;52.65
34983;BME280;21187;50.976;13.720;2022-07-01T10:14:22;98220.63;;;23.36;52.52
34983;BME280;21187;50.976;13.720;2022-07-01T10:19:29;98205.00;;;23.46;51.86
34983;BME280;21187;50.976;13.720;2022-07-01T10:24:32;98214.84;;;23.47;51.69
34983;BME280;21187;50.976;13.720;2022-07-01T10:29:37;98210.00;;;23.34;51.82
34983;BME280;21187;50.976;13.720;2022-07-01T10:34:41;98216.56;;;23.40;51.72
34983;BME280;21187;50.976;13.720;2022-07-01T10:40:00;98218.56;;;23.69;51.25
34983;BME280;21187;50.976;13.720;2022-07-01T10:45:10;98210.72;;;23.81;50.83
34983;BME280;21187;50.976;13.720;2022-07-01T10:50:15;98219.19;;;23.90;50.69
34983;BME280;21187;50.976;13.720;2022-07-01T10:55:38;98204.53;;;23.76;51.05
34983;BME280;21187;50.976;13.720;2022-07-01T11:00:45;98198.13;;;23.80;50.87
34983;BME280;21187;50.976;13.720;2022-07-01T11:05:51;98199.75;;;23.64;51.12
34983;BME280;21187;50.976;13.720;2022-07-01T11:10:58;98231.75;;;23.49;51.28
34983;BME280;21187;50.976;13.720;2022-07-01T11:16:03;98259.59;;;23.25;51.58
34983;BME280;21187;50.976;13.720;2022-07-01T11:21:07;98282.44;;;23.09;51.89
34983;BME280;21187;50.976;13.720;2022-07-01T11:26:21;98279.09;;;22.85;52.73
34983;BME280;21187;50.976;13.720;2022-07-01T11:31:31;98286.75;;;22.40;53.59
34983;BME280;21187;50.976;13.720;2022-07-01T11:36:33;98277.16;;;22.08;54.01
34983;BME280;21187;50.976;13.720;2022-07-01T11:41:58;98256.72;;;22.06;53.64
34983;BME280;21187;50.976;13.720;2022-07-01T11:47:02;98273.03;;;21.76;54.21
34983;BME280;21187;50.976;13.720;2022-07-01T11:52:05;98294.03;;;21.70;54.31
34983;BME280;21187;50.976;13.720;2022-07-01T12:02:14;98279.38;;;21.50;55.24
34983;BME280;21187;50.976;13.720;2022-07-01T12:07:19;98266.47;;;21.47;55.35
34983;BME280;21187;50.976;13.720;2022-07-01T12:12:26;98272.75;;;21.47;55.47
34983;BME280;21187;50.976;13.720;2022-07-01T12:17:29;98285.41;;;21.44;55.82
34983;BME280;21187;50.976;13.720;2022-07-01T12:22:38;98305.41;;;21.49;55.72
34983;BME280;21187;50.976;13.720;2022-07-01T12:27:40;98303.13;;;21.67;55.41
34983;BME280;21187;50.976;13.720;2022-07-01T12:32:45;98297.47;;;21.74;55.40
34983;BME280;21187;50.976;13.720;2022-07-01T12:37:47;98320.97;;;21.35;56.57
34983;BME280;21187;50.976;13.720;2022-07-01T12:42:50;98306.41;;;21.11;56.92
34983;BME280;21187;50.976;13.720;2022-07-01T12:47:54;98315.56;;;21.28;56.52
34983;BME280;21187;50.976;13.720;2022-07-01T12:53:00;98322.94;;;21.35;56.58
34983;BME280;21187;50.976;13.720;2022-07-01T12:58:05;98313.44;;;21.16;57.04
34983;BME280;21187;50.976;13.720;2022-07-01T13:03:07;98323.53;;;21.22;56.74
34983;BME280;21187;50.976;13.720;2022-07-01T13:08:09;98341.81;;;21.36;56.45
34983;BME280;21187;50.976;13.720;2022-07-01T13:13:13;98343.13;;;21.28;56.43
34983;BME280;21187;50.976;13.720;2022-07-01T13:18:15;98332.94;;;21.25;56.70
34983;BME280;21187;50.976;13.720;2022-07-01T13:23:18;98362.63;;;21.14;57.16
34983;BME280;21187;50.976;13.720;2022-07-01T13:28:20;98388.91;;;20.91;57.50
34983;BME280;21187;50.976;13.720;2022-07-01T13:33:22;98382.81;;;20.76;57.79
34983;BME280;21187;50.976;13.720;2022-07-01T13:38:24;98388.94;;;20.87;57.34
34983;BME280;21187;50.976;13.720;2022-07-01T13:43:26;98388.69;;;20.78;57.27
34983;BME280;21187;50.976;13.720;2022-07-01T13:48:28;98388.78;;;20.67;57.69
34983;BME280;21187;50.976;13.720;2022-07-01T13:53:30;98404.44;;;20.39;58.26
34983;BME280;21187;50.976;13.720;2022-07-01T13:58:31;98410.41;;;20.34;58.55
34983;BME280;21187;50.976;13.720;2022-07-01T14:03:33;98408.19;;;20.22;58.61
34983;BME280;21187;50.976;13.720;2022-07-01T14:08:35;98412.13;;;20.17;58.76
34983;BME280;21187;50.976;13.720;2022-07-01T14:13:37;98423.56;;;20.16;59.01
34983;BME280;21187;50.976;13.720;2022-07-01T14:18:40;98423.16;;;20.14;58.71
34983;BME280;21187;50.976;13.720;2022-07-01T14:23:47;98441.88;;;20.29;58.45
34983;BME280;21187;50.976;13.720;2022-07-01T14:28:56;98464.88;;;20.47;58.07
34983;BME280;21187;50.976;13.720;2022-07-01T14:33:57;98449.88;;;20.55;57.85
34983;BME280;21187;50.976;13.720;2022-07-01T14:38:59;98459.59;;;20.63;57.62
34983;BME280;21187;50.976;13.720;2022-07-01T14:44:01;98478.44;;;20.65;57.21
34983;BME280;21187;50.976;13.720;2022-07-01T14:49:03;98483.19;;;20.64;57.03
34983;BME280;21187;50.976;13.720;2022-07-01T14:54:05;98488.91;;;20.81;56.57
34983;BME280;21187;50.976;13.720;2022-07-01T14:59:07;98485.28;;;20.87;56.36
34983;BME280;21187;50.976;13.720;2022-07-01T15:04:11;98485.31;;;20.84;56.37
34983;BME280;21187;50.976;13.720;2022-07-01T15:09:13;98485.88;;;20.71;56.06
34983;BME280;21187;50.976;13.720;2022-07-01T15:14:15;98496.88;;;20.71;55.93
34983;BME280;21187;50.976;13.720;2022-07-01T15:19:17;98509.94;;;20.60;55.98
34983;BME280;21187;50.976;13.720;2022-07-01T15:24:19;98502.59;;;20.50;56.29
34983;BME280;21187;50.976;13.720;2022-07-01T15:29:21;98503.34;;;20.54;56.15
34983;BME280;21187;50.976;13.720;2022-07-01T15:34:23;98522.31;;;20.41;56.20
34983;BME280;21187;50.976;13.720;2022-07-01T15:39:24;98523.25;;;20.23;56.93
34983;BME280;21187;50.976;13.720;2022-07-01T15:44:26;98522.88;;;20.21;57.03
34983;BME280;21187;50.976;13.720;2022-07-01T15:49:32;98517.22;;;20.39;56.67
34983;BME280;21187;50.976;13.720;2022-07-01T15:54:33;98547.06;;;20.41;56.47
34983;BME280;21187;50.976;13.720;2022-07-01T15:59:35;98557.34;;;20.33;56.49
34983;BME280;21187;50.976;13.720;2022-07-01T16:04:37;98548.91;;;20.09;57.03
34983;BME280;21187;50.976;13.720;2022-07-01T16:09:42;98550.56;;;20.00;57.05
34983;BME280;21187;50.976;13.720;2022-07-01T16:14:44;98580.88;;;19.89;57.31
34983;BME280;21187;50.976;13.720;2022-07-01T16:19:46;98585.22;;;19.83;57.67
34983;BME280;21187;50.976;13.720;2022-07-01T16:24:48;98592.66;;;19.86;57.42
34983;BME280;21187;50.976;13.720;2022-07-01T16:29:50;98579.66;;;19.90;57.22
34983;BME280;21187;50.976;13.720;2022-07-01T16:34:52;98583.63;;;19.78;57.69
34983;BME280;21187;50.976;13.720;2022-07-01T16:39:55;98579.69;;;19.79;57.55
34983;BME280;21187;50.976;13.720;2022-07-01T16:45:04;98562.41;;;19.86;57.40
34983;BME280;21187;50.976;13.720;2022-07-01T16:50:12;98547.06;;;19.92;57.12
34983;BME280;21187;50.976;13.720;2022-07-01T16:55:17;98544.38;;;19.77;57.80
34983;BME280;21187;50.976;13.720;2022-07-01T17:00:21;98563.63;;;19.77;58.00
34983;BME280;21187;50.976;13.720;2022-07-01T17:05:23;98568.66;;;19.90;57.67
34983;BME280;21187;50.976;13.720;2022-07-01T17:10:27;98558.00;;;19.99;57.32
34983;BME280;21187;50.976;13.720;2022-07-01T17:15:30;98548.16;;;20.05;57.52
34983;BME280;21187;50.976;13.720;2022-07-01T17:20:33;98548.84;;;20.17;57.21
34983;BME280;21187;50.976;13.720;2022-07-01T17:25:41;98562.19;;;20.18;57.20
34983;BME280;21187;50.976;13.720;2022-07-01T17:31:00;98571.63;;;20.17;56.95
34983;BME280;21187;50.976;13.720;2022-07-01T17:36:05;98583.47;;;20.10;56.89
34983;BME280;21187;50.976;13.720;2022-07-01T17:41:15;98589.63;;;20.25;56.51
34983;BME280;21187;50.976;13.720;2022-07-01T17:46:17;98588.00;;;20.35;56.23
34983;BME280;21187;50.976;13.720;2022-07-01T17:51:20;98613.03;;;20.48;56.18
34983;BME280;21187;50.976;13.720;2022-07-01T17:56:23;98625.19;;;20.51;56.14
34983;BME280;21187;50.976;13.720;2022-07-01T18:01:27;98642.22;;;20.35;55.94
34983;BME280;21187;50.976;13.720;2022-07-01T18:06:29;98651.34;;;20.21;56.33
34983;BME280;21187;50.976;13.720;2022-07-01T18:17:28;98653.00;;;20.07;56.50
34983;BME280;21187;50.976;13.720;2022-07-01T18:22:42;98671.56;;;19.89;56.59
34983;BME280;21187;50.976;13.720;2022-07-01T18:27:45;98692.84;;;19.63;56.93
34983;BME280;21187;50.976;13.720;2022-07-01T18:32:47;98682.66;;;19.49;56.92
34983;BME280;21187;50.976;13.720;2022-07-01T18:37:52;98674.47;;;19.38;56.97
34983;BME280;21187;50.976;13.720;2022-07-01T18:42:57;98685.06;;;19.36;57.20
34983;BME280;21187;50.976;13.720;2022-07-01T18:48:00;98688.22;;;19.31;57.33
34983;BME280;21187;50.976;13.720;2022-07-01T18:53:03;98705.88;;;19.30;57.21
34983;BME280;21187;50.976;13.720;2022-07-01T18:58:05;98718.06;;;19.07;57.62
34983;BME280;21187;50.976;13.720;2022-07-01T19:03:07;98718.84;;;19.08;57.68
34983;BME280;21187;50.976;13.720;2022-07-01T19:08:09;98723.56;;;19.07;57.47
34983;BME280;21187;50.976;13.720;2022-07-01T19:13:11;98718.06;;;19.00;57.56
34983;BME280;21187;50.976;13.720;2022-07-01T19:18:17;98732.97;;;18.99;57.72
34983;BME280;21187;50.976;13.720;2022-07-01T19:23:19;98747.88;;;18.91;57.60
34983;BME280;21187;50.976;13.720;2022-07-01T19:28:21;98765.09;;;18.88;57.68
34983;BME280;21187;50.976;13.720;2022-07-01T19:33:23;98783.16;;;19.00;57.15
34983;BME280;21187;50.976;13.720;2022-07-01T19:38:25;98784.75;;;19.15;56.77
34983;BME280;21187;50.976;13.720;2022-07-01T19:43:27;98788.66;;;19.14;56.58
34983;BME280;21187;50.976;13.720;2022-07-01T19:48:28;98814.94;;;19.01;56.66
34983;BME280;21187;50.976;13.720;2022-07-01T19:53:33;98819.97;;;18.88;56.78
34983;BME280;21187;50.976;13.720;2022-07-01T19:58:35;98820.75;;;18.77;57.37
34983;BME280;21187;50.976;13.720;2022-07-01T20:03:37;98823.09;;;18.83;57.33
34983;BME280;21187;50.976;13.720;2022-07-01T20:08:39;98834.06;;;18.79;57.32
34983;BME280;21187;50.976;13.720;2022-07-01T20:13:40;98852.91;;;18.88;57.10
34983;BME280;21187;50.976;13.720;2022-07-01T20:18:42;98852.94;;;18.95;56.95
34983;BME280;21187;50.976;13.720;2022-07-01T20:23:44;98845.44;;;18.77;57.28
34983;BME280;21187;50.976;13.720;2022-07-01T20:28:46;98865.41;;;18.63;57.71
34983;BME280;21187;50.976;13.720;2022-07-01T20:33:48;98882.56;;;18.50;57.99
34983;BME280;21187;50.976;13.720;2022-07-01T20:38:51;98868.47;;;18.44;58.00
34983;BME280;21187;50.976;13.720;2022-07-01T20:43:53;98859.06;;;18.45;58.07
34983;BME280;21187;50.976;13.720;2022-07-01T20:48:55;98859.78;;;18.38;58.21
34983;BME280;21187;50.976;13.720;2022-07-01T20:53:56;98866.88;;;18.43;57.96
34983;BME280;21187;50.976;13.720;2022-07-01T20:58:58;98875.56;;;18.56;57.71
34983;BME280;21187;50.976;13.720;2022-07-01T21:04:20;98875.59;;;18.67;57.25
34983;BME280;21187;50.976;13.720;2022-07-01T21:09:22;98886.59;;;18.70;57.13
34983;BME280;21187;50.976;13.720;2022-07-01T21:14:24;98890.09;;;18.71;57.09
34983;BME280;21187;50.976;13.720;2022-07-01T21:19:26;98896.75;;;18.66;56.96
34983;BME280;21187;50.976;13.720;2022-07-01T21:24:28;98895.56;;;18.60;56.95
34983;BME280;21187;50.976;13.720;2022-07-01T21:29:30;98896.72;;;18.59;56.89
34983;BME280;21187;50.976;13.720;2022-07-01T21:34:34;98885.38;;;18.57;56.81
34983;BME280;21187;50.976;13.720;2022-07-01T21:39:36;98896.69;;;18.52;56.75
34983;BME280;21187;50.976;13.720;2022-07-01T21:44:40;98892.00;;;18.52;56.71
34983;BME280;21187;50.976;13.720;2022-07-01T21:49:43;98878.66;;;18.51;56.66
34983;BME280;21187;50.976;13.720;2022-07-01T21:54:46;98878.66;;;18.51;56.46
34983;BME280;21187;50.976;13.720;2022-07-01T21:59:50;98883.75;;;18.49;56.44
34983;BME280;21187;50.976;13.720;2022-07-01T22:04:53;98888.06;;;18.50;56.23
34983;BME280;21187;50.976;13.720;2022-07-01T22:09:56;98899.00;;;18.46;56.15
34983;BME280;21187;50.976;13.720;2022-07-01T22:15:02;98892.69;;;18.31;56.30
34983;BME280;21187;50.976;13.720;2022-07-01T22:20:05;98911.31;;;18.00;56.74
34983;BME280;21187;50.976;13.720;2022-07-01T22:25:07;98908.78;;;17.80;57.05
34983;BME280;21187;50.976;13.720;2022-07-01T22:30:10;98910.00;;;17.87;56.64
34983;BME280;21187;50.976;13.720;2022-07-01T22:35:13;98888.16;;;17.94;56.68
34983;BME280;21187;50.976;13.720;2022-07-01T22:40:16;98883.72;;;17.78;56.82
34983;BME280;21187;50.976;13.720;2022-07-01T22:45:19;98895.84;;;17.77;56.89
34983;BME280;21187;50.976;13.720;2022-07-01T22:50:53;98890.06;;;17.90;56.47
34983;BME280;21187;50.976;13.720;2022-07-01T22:56:01;98890.78;;;17.79;56.57
34983;BME280;21187;50.976;13.720;2022-07-01T23:01:04;98889.84;;;17.61;56.87
34983;BME280;21187;50.976;13.720;2022-07-01T23:06:09;98895.97;;;17.43;57.28
34983;BME280;21187;50.976;13.720;2022-07-01T23:11:21;98901.31;;;17.29;57.61
34983;BME280;21187;50.976;13.720;2022-07-01T23:16:24;98916.84;;;17.18;57.91
34983;BME280;21187;50.976;13.720;2022-07-01T23:21:29;98915.41;;;17.31;57.58
34983;BME280;21187;50.976;13.720;2022-07-01T23:26:31;98907.97;;;17.28;57.43
34983;BME280;21187;50.976;13.720;2022-07-01T23:31:35;98893.41;;;17.20;57.81
34983;BME280;21187;50.976;13.720;2022-07-01T23:36:40;98911.22;;;17.03;58.10
34983;BME280;21187;50.976;13.720;2022-07-01T23:41:42;98911.97;;;17.00;58.37
34983;BME280;21187;50.976;13.720;2022-07-01T23:46:44;98905.84;;;17.14;57.98
34983;BME280;21187;50.976;13.720;2022-07-01T23:51:46;98903.91;;;17.15;57.46
34983;BME280;21187;50.976;13.720;2022-07-01T23:56:48;98897.09;;;16.98;58.12
